Portada
METAR-TAF:

METAR-TAF

Aeropuertos :

Ringkøbing-Skjern, Dinamarca

latitud: 56-00N, longitud: 008-21E, altitud: 5 m

Observación

El informe se hizo hace 11 horas y 9 minutos, a las 13:50 UTC
Viento 18 kt del suroeste
Temperatura 13°C
Humedad 82%
Presión 996 hPa
Visibilidad 10 km o más
Escasas nubes a una altura de 2500 ft
Nubes dispersas a una altura de 3500 ft, Cumulus congestus.

METAR: EKVJ 061350Z 23018KT 9999 FEW025 SCT035TCU 13/10 Q0996

Hora: 02:59 (00:59 UTC)

Pronóstico

El informe se hizo hace 16 horas y 7 minutos, a las 08:52 UTC
Pronóstico válido del 06 a las 09 UTC al 06 a las 15 UTC
Viento 15 kt del suroeste
Visibilidad 10 km o más
Nubes dispersas a una altura de 3000 ft
Temporalmente
del 06 a las 09 UTC al 06 a las 15 UTC
Viento 18 kt del suroeste con ráfagas de 28 kt
Nubes dispersas a una altura de 3000 ft, Cumulonimbus.
chaparrones de lluvia

TAF: EKVJ 060852Z 0609/0615 23015KT 9999 SCT030 TEMPO 0609/0615 23018G28KT SHRA SCT030CB

Observaciones y pronósticos meteorológicos de más de 4000 aeropuertos (mensajes METAR y TAF).

Los puntos amarillos y rojos representan las estaciones disponibles.

Ponga el ratón en el punto deseado para ver el nombre de la estación.

Haga clic para ver las observaciones y los pronósticos meteorológicos.

Para cambiar el mapa : haga clic en los botones verdes con una cruz de color negro para hacer un zoom, en el botón verde con un guión para alejar o en las flechas verdes para mapas adyacentes.


METAR-TAF: